createdAt,value
2023-04-10T00:00:39.505Z,5.00
2023-04-10T00:03:12.266Z,5.47
2023-04-10T00:05:40.367Z,5.20
2023-04-10T00:08:08.455Z,5.43
2023-04-10T00:10:36.323Z,5.25
2023-04-10T00:13:04.895Z,4.95
2023-04-10T00:15:33.043Z,4.95
2023-04-10T00:18:11.765Z,5.07
2023-04-10T00:20:39.703Z,5.93
2023-04-10T00:23:07.692Z,5.18
2023-04-10T00:25:35.813Z,5.30
2023-04-10T00:28:03.617Z,5.28
2023-04-10T00:30:31.719Z,5.07
2023-04-10T00:32:59.767Z,5.82
2023-04-10T00:35:28.202Z,5.80
2023-04-10T00:37:57.011Z,5.70
2023-04-10T00:40:25.081Z,5.68
2023-04-10T00:42:53.111Z,6.38
2023-04-10T00:45:21.113Z,5.93
2023-04-10T00:47:49.240Z,5.70
2023-04-10T00:50:17.432Z,5.57
2023-04-10T00:52:45.348Z,5.43
2023-04-10T00:55:13.420Z,5.45
2023-04-10T00:57:45.637Z,4.82
2023-04-10T01:00:17.461Z,5.30
2023-04-10T01:02:45.806Z,5.13
2023-04-10T01:05:14.082Z,4.95
2023-04-10T01:07:41.924Z,5.35
2023-04-10T01:10:21.578Z,4.82
2023-04-10T01:12:52.469Z,5.22
2023-04-10T01:17:56.392Z,5.20
2023-04-10T01:20:25.865Z,4.60
2023-04-10T01:23:12.647Z,4.88
2023-04-10T01:25:40.521Z,4.75
2023-04-10T01:28:15.933Z,4.95
2023-04-10T01:30:44.589Z,4.75
2023-04-10T01:33:14.160Z,4.80
2023-04-10T01:35:43.968Z,4.82
2023-04-10T01:38:12.665Z,4.50
2023-04-10T01:40:42.285Z,5.30
2023-04-10T01:43:12.788Z,4.38
2023-04-10T01:45:51.249Z,4.93
2023-04-10T01:48:19.598Z,3.83
2023-04-10T01:50:47.648Z,4.50
2023-04-10T01:53:16.548Z,5.13
2023-04-10T01:55:44.733Z,4.93
2023-04-10T01:58:14.291Z,4.82
2023-04-10T02:00:43.560Z,4.35
2023-04-10T02:03:13.296Z,5.47
2023-04-10T02:05:47.485Z,4.47
2023-04-10T02:08:25.907Z,4.40
2023-04-10T02:11:14.081Z,4.15
2023-04-10T02:13:42.152Z,4.60
2023-04-10T02:16:11.035Z,4.43
2023-04-10T02:18:39.525Z,4.38
2023-04-10T02:21:07.765Z,4.60
2023-04-10T02:23:36.540Z,3.95
2023-04-10T02:26:08.442Z,4.72
2023-04-10T02:28:39.459Z,4.30
2023-04-10T02:31:08.320Z,5.10
2023-04-10T02:33:36.802Z,5.13
2023-04-10T02:36:04.996Z,4.90
2023-04-10T02:38:32.955Z,5.20
2023-04-10T02:41:00.940Z,5.20
2023-04-10T02:43:29.765Z,4.80
2023-04-10T02:45:58.016Z,4.78
2023-04-10T02:48:29.035Z,5.00
2023-04-10T02:51:01.667Z,4.93
2023-04-10T02:53:30.090Z,5.07
2023-04-10T02:56:02.453Z,5.13
2023-04-10T02:58:31.847Z,5.43
2023-04-10T03:01:01.746Z,4.80
2023-04-10T03:03:39.576Z,4.80
2023-04-10T03:06:08.507Z,4.85
2023-04-10T03:08:37.624Z,4.90
2023-04-10T03:11:06.708Z,5.63
2023-04-10T03:13:34.535Z,5.05
2023-04-10T03:16:02.455Z,4.90
2023-04-10T03:18:32.019Z,4.60
2023-04-10T03:20:59.911Z,5.07
2023-04-10T03:23:27.881Z,4.90
2023-04-10T03:25:56.334Z,4.90
2023-04-10T03:28:28.120Z,5.03
2023-04-10T03:30:57.088Z,4.50
2023-04-10T03:33:25.197Z,4.93
2023-04-10T03:35:53.813Z,4.80
2023-04-10T03:38:21.746Z,4.60
2023-04-10T03:40:49.808Z,4.82
2023-04-10T03:43:21.015Z,5.10
2023-04-10T03:45:49.606Z,5.00
2023-04-10T03:48:18.496Z,4.82
2023-04-10T03:50:48.025Z,4.63
2023-04-10T03:53:17.259Z,4.82
2023-04-10T03:55:46.296Z,4.38
2023-04-10T03:58:14.425Z,4.30
2023-04-10T04:00:42.408Z,4.95
2023-04-10T04:03:33.357Z,4.85
2023-04-10T04:06:01.292Z,4.65
2023-04-10T04:08:29.225Z,4.88
2023-04-10T04:11:17.467Z,4.50
2023-04-10T04:14:05.639Z,5.20
2023-04-10T04:16:56.842Z,4.88
2023-04-10T04:19:54.062Z,4.55
2023-04-10T04:22:24.732Z,4.90
2023-04-10T04:24:58.669Z,4.40
2023-04-10T04:27:45.454Z,4.38
2023-04-10T04:30:39.583Z,4.85
2023-04-10T04:33:26.019Z,4.72
2023-04-10T04:36:03.829Z,4.95
2023-04-10T04:38:37.786Z,4.80
2023-04-10T04:41:32.770Z,4.38
2023-04-10T04:44:33.361Z,4.63
2023-04-10T04:47:09.211Z,4.88
2023-04-10T04:49:56.129Z,5.03
2023-04-10T04:53:00.571Z,4.50
2023-04-10T04:55:40.790Z,4.18
2023-04-10T04:58:26.400Z,4.70
2023-04-10T05:01:10.292Z,4.82
2023-04-10T05:03:56.057Z,4.57
2023-04-10T05:06:55.983Z,4.60
2023-04-10T05:09:39.970Z,4.90
2023-04-10T05:12:17.336Z,4.72
2023-04-10T05:14:45.997Z,5.10
2023-04-10T05:17:29.689Z,4.32
2023-04-10T05:20:07.312Z,4.93
2023-04-10T05:22:41.680Z,4.68
2023-04-10T05:25:28.033Z,4.13
2023-04-10T05:28:06.554Z,5.45
2023-04-10T05:30:53.627Z,4.75
2023-04-10T05:33:39.718Z,4.82
2023-04-10T05:36:25.060Z,4.72
2023-04-10T05:39:10.057Z,4.60
2023-04-10T05:41:58.367Z,4.65
2023-04-10T05:44:46.470Z,5.03
2023-04-10T05:47:37.555Z,4.85
2023-04-10T05:50:23.012Z,4.55
2023-04-10T05:52:51.330Z,4.80
2023-04-10T05:55:38.193Z,4.35
2023-04-10T05:58:29.681Z,4.85
2023-04-10T06:01:26.934Z,4.38
2023-04-10T06:04:16.828Z,4.70
2023-04-10T06:06:51.801Z,4.38
2023-04-10T06:09:20.555Z,4.90
2023-04-10T06:11:48.431Z,4.75
2023-04-10T06:14:20.360Z,4.90
2023-04-10T06:16:48.422Z,4.82
2023-04-10T06:19:18.868Z,4.75
2023-04-10T06:21:46.980Z,4.57
2023-04-10T06:24:15.881Z,4.55
2023-04-10T06:26:47.872Z,4.50
2023-04-10T06:29:16.053Z,3.88
2023-04-10T06:31:45.069Z,4.30
2023-04-10T06:34:13.567Z,4.22
2023-04-10T06:36:51.086Z,4.85
2023-04-10T06:39:20.155Z,3.80
2023-04-10T06:41:49.432Z,3.95
2023-04-10T06:44:30.676Z,4.07
2023-04-10T06:46:58.842Z,3.85
2023-04-10T06:49:26.719Z,4.28
2023-04-10T06:51:54.948Z,4.22
2023-04-10T06:54:22.887Z,4.60
2023-04-10T06:56:51.207Z,3.80
2023-04-10T06:59:19.110Z,3.72
2023-04-10T07:01:47.059Z,3.50
2023-04-10T07:04:14.959Z,4.43
2023-04-10T07:06:42.983Z,3.60
2023-04-10T07:09:10.846Z,3.42
2023-04-10T07:11:38.778Z,3.90
2023-04-10T07:14:15.132Z,3.60
2023-04-10T07:16:43.278Z,3.58
2023-04-10T07:19:11.265Z,3.30
2023-04-10T07:21:39.378Z,3.90
2023-04-10T07:24:07.245Z,3.10
2023-04-10T07:26:44.080Z,3.35
2023-04-10T07:29:16.167Z,3.20
2023-04-10T07:31:44.610Z,3.25
2023-04-10T07:34:12.889Z,2.78
2023-04-10T07:36:40.784Z,2.75
2023-04-10T07:39:08.645Z,2.28
2023-04-10T07:41:36.648Z,2.10
2023-04-10T07:44:04.550Z,2.17
2023-04-10T07:46:32.600Z,2.47
2023-04-10T07:49:00.488Z,2.35
2023-04-10T07:51:29.007Z,2.40
2023-04-10T07:54:00.146Z,2.70
2023-04-10T07:56:31.439Z,2.90
2023-04-10T07:59:02.246Z,2.63
2023-04-10T08:01:30.241Z,2.60
2023-04-10T08:03:58.635Z,2.65
2023-04-10T08:06:27.074Z,2.30
2023-04-10T08:08:55.118Z,2.28
2023-04-10T08:11:26.760Z,2.00
2023-04-10T08:13:55.590Z,2.20
2023-04-10T08:16:27.315Z,2.08
2023-04-10T08:18:56.804Z,2.38
2023-04-10T08:21:28.770Z,1.90
2023-04-10T08:24:00.520Z,1.63
2023-04-10T08:26:28.950Z,1.92
2023-04-10T08:28:58.013Z,2.30
2023-04-10T08:31:28.245Z,1.90
2023-04-10T08:33:57.030Z,2.10
2023-04-10T08:36:27.333Z,2.35
2023-04-10T08:38:55.332Z,2.10
2023-04-10T08:41:23.392Z,2.10
2023-04-10T08:43:51.476Z,2.30
2023-04-10T08:46:20.280Z,2.60
2023-04-10T08:48:52.192Z,2.63
2023-04-10T08:51:26.185Z,2.63
2023-04-10T08:53:59.465Z,2.67
2023-04-10T08:56:27.782Z,2.60
2023-04-10T08:58:56.202Z,2.40
2023-04-10T09:01:24.391Z,2.70
2023-04-10T09:03:52.864Z,3.08
2023-04-10T09:06:20.830Z,2.65
2023-04-10T09:08:48.765Z,2.80
2023-04-10T09:11:16.648Z,3.22
2023-04-10T09:13:45.258Z,2.92
2023-04-10T09:16:14.423Z,3.17
2023-04-10T09:18:45.591Z,2.83
2023-04-10T09:21:15.006Z,2.47
2023-04-10T09:23:44.646Z,2.90
2023-04-10T09:26:28.114Z,2.50
2023-04-10T09:29:03.959Z,2.85
2023-04-10T09:31:35.657Z,3.30
2023-04-10T09:34:23.805Z,3.25
2023-04-10T09:37:00.044Z,3.45
2023-04-10T09:39:43.262Z,2.75
2023-04-10T09:42:15.089Z,2.95
2023-04-10T09:44:43.725Z,2.83
2023-04-10T09:47:14.879Z,3.10
2023-04-10T09:49:53.174Z,3.13
2023-04-10T09:52:21.407Z,3.75
2023-04-10T09:54:49.563Z,3.88
2023-04-10T09:57:19.286Z,3.58
2023-04-10T09:59:54.466Z,3.63
2023-04-10T10:02:23.819Z,3.83
2023-04-10T10:04:52.728Z,3.80
2023-04-10T10:07:21.628Z,3.53
2023-04-10T10:09:50.978Z,3.63
2023-04-10T10:12:36.276Z,3.45
2023-04-10T10:15:07.225Z,3.28
2023-04-10T10:17:54.074Z,3.65
2023-04-10T10:20:23.183Z,3.78
2023-04-10T10:22:51.994Z,3.85
2023-04-10T10:25:20.828Z,4.50
2023-04-10T10:27:50.532Z,3.80
2023-04-10T10:30:29.384Z,3.75
2023-04-10T10:33:00.442Z,3.85
2023-04-10T10:35:29.808Z,3.95
2023-04-10T10:37:59.813Z,4.47
2023-04-10T10:40:50.580Z,4.20
2023-04-10T10:43:18.488Z,3.53
2023-04-10T10:45:53.560Z,3.90
2023-04-10T10:48:21.510Z,3.78
2023-04-10T10:50:53.905Z,3.72
2023-04-10T10:53:37.210Z,4.17
2023-04-10T10:56:20.842Z,4.57
2023-04-10T10:58:48.660Z,3.90
2023-04-10T11:01:16.862Z,3.40
2023-04-10T11:03:45.576Z,3.67
2023-04-10T11:06:17.078Z,5.85
2023-04-10T11:08:48.757Z,3.80
2023-04-10T11:11:20.259Z,4.28
2023-04-10T11:13:56.384Z,3.78
2023-04-10T11:16:25.370Z,4.47
2023-04-10T11:19:02.798Z,3.78
2023-04-10T11:22:04.461Z,3.78
2023-04-10T11:24:51.722Z,3.97
2023-04-10T11:27:42.366Z,4.00
2023-04-10T11:30:30.086Z,3.83
2023-04-10T11:32:58.349Z,3.50
2023-04-10T11:35:27.211Z,4.20
2023-04-10T11:38:11.150Z,4.00
2023-04-10T11:40:54.533Z,4.03
2023-04-10T11:43:22.480Z,4.05
2023-04-10T11:45:50.446Z,3.80
2023-04-10T11:48:18.343Z,5.93
2023-04-10T11:50:46.369Z,3.70
2023-04-10T11:53:21.712Z,3.78
2023-04-10T11:55:49.593Z,2.80
2023-04-10T11:58:27.588Z,3.40
2023-04-10T12:00:59.390Z,3.40
2023-04-10T12:03:36.775Z,3.20
2023-04-10T12:06:05.827Z,3.17
2023-04-10T12:08:34.881Z,4.18
2023-04-10T12:11:03.555Z,3.47
2023-04-10T12:13:32.246Z,3.75
2023-04-10T12:16:01.739Z,3.53
2023-04-10T12:18:30.912Z,4.05
2023-04-10T12:20:59.587Z,3.72
2023-04-10T12:23:28.330Z,3.75
2023-04-10T12:26:08.021Z,4.20
2023-04-10T12:28:36.945Z,4.07
2023-04-10T12:31:05.191Z,3.38
2023-04-10T12:33:33.165Z,3.90
2023-04-10T12:36:01.644Z,4.18
2023-04-10T12:38:59.088Z,3.78
2023-04-10T12:41:28.351Z,3.30
2023-04-10T12:44:07.780Z,3.10
2023-04-10T12:46:36.789Z,3.35
2023-04-10T12:49:11.538Z,3.95
2023-04-10T12:51:53.213Z,3.78
2023-04-10T12:54:32.016Z,5.65
2023-04-10T12:57:00.693Z,4.22
2023-04-10T12:59:30.406Z,3.78
2023-04-10T13:01:58.365Z,3.50
2023-04-10T13:04:26.636Z,3.72
2023-04-10T13:06:54.561Z,3.60
2023-04-10T13:09:22.606Z,3.88
2023-04-10T13:11:52.304Z,3.65
2023-04-10T13:14:20.169Z,3.95
2023-04-10T13:16:48.400Z,3.55
2023-04-10T13:19:16.669Z,3.70
2023-04-10T13:21:44.561Z,3.95
2023-04-10T13:24:13.675Z,3.55
2023-04-10T13:26:43.216Z,3.67
2023-04-10T13:29:11.191Z,3.80
2023-04-10T13:31:39.127Z,3.47
2023-04-10T13:34:07.108Z,3.80
2023-04-10T13:36:35.000Z,3.83
2023-04-10T13:39:03.086Z,3.75
2023-04-10T13:41:30.994Z,3.72
2023-04-10T13:43:59.000Z,3.00
2023-04-10T13:46:26.960Z,4.07
2023-04-10T13:48:55.032Z,3.70
2023-04-10T13:51:22.853Z,3.67
2023-04-10T13:53:50.779Z,3.40
2023-04-10T13:56:18.585Z,2.90
2023-04-10T13:58:46.993Z,3.40
2023-04-10T14:01:14.865Z,3.20
2023-04-10T14:03:43.002Z,2.90
2023-04-10T14:06:10.977Z,3.40
2023-04-10T14:08:39.019Z,2.97
2023-04-10T14:11:07.097Z,3.08
2023-04-10T14:13:34.962Z,3.05
2023-04-10T14:16:04.306Z,2.83
2023-04-10T14:18:32.381Z,3.78
2023-04-10T14:21:00.290Z,3.33
2023-04-10T14:23:28.339Z,2.40
2023-04-10T14:25:56.121Z,2.88
2023-04-10T14:28:24.056Z,3.30
2023-04-10T14:30:52.518Z,3.25
2023-04-10T14:33:20.756Z,3.03
2023-04-10T14:35:48.975Z,2.72
2023-04-10T14:38:17.291Z,2.95
2023-04-10T14:40:48.649Z,3.15
2023-04-10T14:43:16.562Z,3.28
2023-04-10T14:45:44.571Z,3.17
2023-04-10T14:48:13.584Z,3.28
2023-04-10T14:50:41.635Z,2.70
2023-04-10T14:53:10.054Z,2.70
2023-04-10T14:55:38.133Z,2.13
2023-04-10T14:58:07.155Z,2.85
2023-04-10T15:00:35.063Z,3.13
2023-04-10T15:03:05.515Z,2.50
2023-04-10T15:05:33.460Z,3.28
2023-04-10T15:08:01.420Z,3.30
2023-04-10T15:10:32.376Z,2.63
2023-04-10T15:13:00.253Z,2.92
2023-04-10T15:15:28.078Z,3.15
2023-04-10T15:17:55.986Z,3.38
2023-04-10T15:20:23.958Z,2.97
2023-04-10T15:22:51.858Z,3.03
2023-04-10T15:25:20.051Z,3.03
2023-04-10T15:27:47.875Z,3.13
2023-04-10T15:30:17.484Z,2.60
2023-04-10T15:32:45.471Z,2.65
2023-04-10T15:35:13.570Z,3.03
2023-04-10T15:37:41.462Z,2.75
2023-04-10T15:40:10.633Z,2.90
2023-04-10T15:42:38.724Z,2.67
2023-04-10T15:45:07.441Z,3.00
2023-04-10T15:47:35.355Z,2.40
2023-04-10T15:50:04.710Z,2.40
2023-04-10T15:52:33.924Z,2.88
2023-04-10T15:55:01.870Z,2.50
2023-04-10T15:57:29.930Z,2.97
2023-04-10T16:00:00.541Z,2.50
2023-04-10T16:02:28.905Z,2.53
2023-04-10T16:04:56.969Z,2.80
2023-04-10T16:07:25.255Z,2.97
2023-04-10T16:09:55.128Z,3.13
2023-04-10T16:12:23.105Z,2.85
2023-04-10T16:14:50.910Z,2.58
2023-04-10T16:17:18.771Z,2.63
2023-04-10T16:19:46.673Z,2.83
2023-04-10T16:22:14.565Z,2.80
2023-04-10T16:24:42.491Z,3.08
2023-04-10T16:27:10.311Z,3.17
2023-04-10T16:29:38.315Z,3.25
2023-04-10T16:32:06.190Z,2.72
2023-04-10T16:34:34.267Z,2.40
2023-04-10T16:37:02.136Z,2.55
2023-04-10T16:39:30.020Z,2.55
2023-04-10T16:41:57.938Z,2.50
2023-04-10T16:44:25.854Z,2.75
2023-04-10T16:46:53.709Z,2.78
2023-04-10T16:49:22.605Z,2.72
2023-04-10T16:51:50.865Z,2.92
2023-04-10T16:54:18.759Z,2.67
2023-04-10T16:56:46.709Z,2.63
2023-04-10T16:59:14.593Z,2.63
2023-04-10T17:01:42.526Z,2.55
2023-04-10T17:04:10.531Z,3.00
2023-04-10T17:06:38.804Z,2.58
2023-04-10T17:09:06.793Z,2.45
2023-04-10T17:11:34.818Z,2.90
2023-04-10T17:14:03.779Z,2.97
2023-04-10T17:16:31.677Z,3.22
2023-04-10T17:18:59.764Z,3.80
2023-04-10T17:21:27.741Z,2.72
2023-04-10T17:23:55.759Z,3.33
2023-04-10T17:26:23.822Z,3.45
2023-04-10T17:28:52.272Z,3.25
2023-04-10T17:31:20.453Z,3.00
2023-04-10T17:33:48.500Z,3.03
2023-04-10T17:36:16.533Z,2.53
2023-04-10T17:38:44.615Z,2.60
2023-04-10T17:41:15.949Z,3.05
2023-04-10T17:43:43.834Z,2.90
2023-04-10T17:46:15.528Z,2.60
2023-04-10T17:48:43.956Z,2.90
2023-04-10T17:51:12.285Z,2.60
2023-04-10T17:53:40.184Z,2.95
2023-04-10T17:56:08.560Z,3.35
2023-04-10T17:58:36.448Z,4.57
2023-04-10T18:01:04.711Z,12.10
2023-04-10T18:03:41.427Z,4.20
2023-04-10T18:06:20.370Z,4.22
2023-04-10T18:08:51.315Z,3.58
2023-04-10T18:11:19.287Z,3.78
2023-04-10T18:13:48.202Z,4.07
2023-04-10T18:16:17.702Z,4.25
2023-04-10T18:18:45.761Z,3.88
2023-04-10T18:21:13.869Z,4.47
2023-04-10T18:23:41.960Z,3.75
2023-04-10T18:26:09.827Z,4.10
2023-04-10T18:28:38.819Z,3.90
2023-04-10T18:31:07.327Z,4.40
2023-04-10T18:33:35.431Z,4.22
2023-04-10T18:36:03.593Z,4.22
2023-04-10T18:38:31.695Z,3.75
2023-04-10T18:40:59.598Z,3.78
2023-04-10T18:43:27.666Z,3.97
2023-04-10T18:45:56.184Z,3.92
2023-04-10T18:48:24.024Z,3.50
2023-04-10T18:50:55.740Z,3.78
2023-04-10T18:53:23.636Z,3.60
2023-04-10T18:55:55.177Z,4.30
2023-04-10T18:58:23.182Z,3.90
2023-04-10T19:00:51.182Z,4.05
2023-04-10T19:03:19.241Z,4.80
2023-04-10T19:05:48.029Z,4.60
2023-04-10T19:08:17.173Z,3.95
2023-04-10T19:10:45.308Z,4.15
2023-04-10T19:13:13.541Z,4.68
2023-04-10T19:15:46.706Z,4.93
2023-04-10T19:18:16.504Z,4.43
2023-04-10T19:20:53.636Z,5.22
2023-04-10T19:23:33.709Z,4.68
2023-04-10T19:26:04.288Z,5.32
2023-04-10T19:28:33.466Z,4.88
2023-04-10T19:31:01.821Z,5.32
2023-04-10T19:33:30.477Z,5.85
2023-04-10T19:35:59.425Z,5.47
2023-04-10T19:38:29.903Z,5.25
2023-04-10T19:40:58.554Z,5.60
2023-04-10T19:43:26.593Z,5.88
2023-04-10T19:45:55.865Z,5.45
2023-04-10T19:48:23.927Z,5.63
2023-04-10T19:50:51.901Z,5.95
2023-04-10T19:53:20.524Z,4.95
2023-04-10T19:55:49.435Z,6.10
2023-04-10T19:58:35.595Z,6.22
2023-04-10T20:01:06.453Z,6.88
2023-04-10T20:03:35.898Z,7.03
2023-04-10T20:06:04.672Z,5.90
2023-04-10T20:08:33.245Z,6.20
2023-04-10T20:11:02.901Z,5.63
2023-04-10T20:13:30.909Z,5.72
2023-04-10T20:15:59.429Z,6.40
2023-04-10T20:18:28.216Z,6.05
2023-04-10T20:20:56.740Z,6.18
2023-04-10T20:23:25.376Z,5.53
2023-04-10T20:25:53.525Z,5.18
2023-04-10T20:28:21.652Z,5.18
2023-04-10T20:30:49.645Z,5.32
2023-04-10T20:33:17.493Z,5.90
2023-04-10T20:35:46.027Z,5.93
2023-04-10T20:38:14.001Z,6.32
2023-04-10T20:40:41.916Z,6.15
2023-04-10T20:43:14.119Z,6.20
2023-04-10T20:45:42.202Z,6.15
2023-04-10T20:48:10.279Z,7.50
2023-04-10T20:50:42.604Z,5.97
2023-04-10T20:53:12.684Z,6.20
2023-04-10T20:55:40.810Z,6.88
2023-04-10T20:58:08.695Z,6.45
2023-04-10T21:00:37.791Z,7.55
2023-04-10T21:03:06.184Z,7.63
2023-04-10T21:05:34.356Z,7.68
2023-04-10T21:08:02.218Z,7.53
2023-04-10T21:10:30.239Z,7.50
2023-04-10T21:12:58.046Z,7.22
2023-04-10T21:15:26.049Z,7.30
2023-04-10T21:17:54.364Z,7.20
2023-04-10T21:20:22.407Z,7.50
2023-04-10T21:22:50.252Z,7.22
2023-04-10T21:25:18.215Z,7.20
2023-04-10T21:27:46.041Z,7.78
2023-04-10T21:30:14.080Z,7.63
2023-04-10T21:32:42.032Z,6.90
2023-04-10T21:35:10.276Z,6.88
2023-04-10T21:37:38.222Z,7.50
2023-04-10T21:40:06.702Z,6.72
2023-04-10T21:42:37.291Z,7.43
2023-04-10T21:45:06.336Z,7.88
2023-04-10T21:47:34.314Z,8.50
2023-04-10T21:50:02.193Z,9.13
2023-04-10T21:52:30.039Z,7.47
2023-04-10T21:54:57.965Z,8.50
2023-04-10T21:57:25.849Z,8.30
2023-04-10T21:59:53.730Z,8.30
2023-04-10T22:02:21.668Z,7.97
2023-04-10T22:04:54.501Z,9.73
2023-04-10T22:07:22.965Z,8.38
2023-04-10T22:09:50.890Z,8.10
2023-04-10T22:12:18.810Z,9.02
2023-04-10T22:14:46.742Z,7.93
2023-04-10T22:17:14.619Z,8.10
2023-04-10T22:19:42.635Z,8.55
2023-04-10T22:22:10.656Z,8.60
2023-04-10T22:24:38.519Z,8.65
2023-04-10T22:27:08.150Z,8.55
2023-04-10T22:29:36.573Z,9.32
2023-04-10T22:32:04.513Z,9.45
2023-04-10T22:34:32.570Z,9.77
2023-04-10T22:37:00.665Z,10.85
2023-04-10T22:39:28.479Z,10.68
2023-04-10T22:41:56.378Z,10.40
2023-04-10T22:44:24.194Z,11.20
2023-04-10T22:46:52.025Z,11.68
2023-04-10T22:49:19.946Z,11.25
2023-04-10T22:51:47.733Z,9.93
2023-04-10T22:54:16.185Z,9.35
2023-04-10T22:56:44.313Z,10.38
2023-04-10T22:59:12.297Z,9.88
2023-04-10T23:01:40.226Z,8.10
2023-04-10T23:04:08.419Z,8.48
2023-04-10T23:06:36.343Z,10.15
2023-04-10T23:09:04.298Z,9.13
2023-04-10T23:11:33.260Z,9.68
2023-04-10T23:14:01.173Z,8.75
2023-04-10T23:16:29.354Z,8.95
2023-04-10T23:18:57.445Z,9.05
2023-04-10T23:21:25.563Z,10.38
2023-04-10T23:23:53.503Z,9.77
2023-04-10T23:26:21.666Z,8.65
2023-04-10T23:28:49.520Z,8.95
2023-04-10T23:31:17.513Z,8.65
2023-04-10T23:33:45.484Z,8.27
2023-04-10T23:36:13.524Z,8.90
2023-04-10T23:38:41.471Z,7.82
2023-04-10T23:41:09.632Z,9.07
2023-04-10T23:43:37.428Z,8.88
2023-04-10T23:46:05.668Z,8.55
2023-04-10T23:48:33.702Z,8.35
2023-04-10T23:51:08.648Z,9.27
2023-04-10T23:53:36.523Z,9.90
2023-04-10T23:56:04.425Z,9.35
2023-04-10T23:58:32.367Z,9.65
